sensor_id;sensor_type;location;lat;lon;timestamp;P1;durP1;ratioP1;P2;durP2;ratioP2
2928;SDS011;1474;51.460;7.150;2024-03-08T00:01:39;19.08;;;11.73;;
2928;SDS011;1474;51.460;7.150;2024-03-08T00:04:24;20.67;;;11.63;;
2928;SDS011;1474;51.460;7.150;2024-03-08T00:07:08;15.25;;;10.38;;
2928;SDS011;1474;51.460;7.150;2024-03-08T00:09:52;15.73;;;9.57;;
2928;SDS011;1474;51.460;7.150;2024-03-08T00:12:38;14.32;;;9.20;;
2928;SDS011;1474;51.460;7.150;2024-03-08T00:15:25;13.27;;;10.70;;
2928;SDS011;1474;51.460;7.150;2024-03-08T00:18:10;18.65;;;10.27;;
2928;SDS011;1474;51.460;7.150;2024-03-08T00:20:55;15.75;;;11.13;;
2928;SDS011;1474;51.460;7.150;2024-03-08T00:23:40;15.60;;;10.75;;
2928;SDS011;1474;51.460;7.150;2024-03-08T00:26:25;17.92;;;10.85;;
2928;SDS011;1474;51.460;7.150;2024-03-08T00:29:10;16.83;;;12.40;;
2928;SDS011;1474;51.460;7.150;2024-03-08T00:31:57;18.13;;;12.13;;
2928;SDS011;1474;51.460;7.150;2024-03-08T00:34:42;13.75;;;10.23;;
2928;SDS011;1474;51.460;7.150;2024-03-08T00:37:27;16.75;;;10.15;;
2928;SDS011;1474;51.460;7.150;2024-03-08T00:40:13;18.58;;;11.48;;
2928;SDS011;1474;51.460;7.150;2024-03-08T00:42:58;19.20;;;12.60;;
2928;SDS011;1474;51.460;7.150;2024-03-08T00:45:47;17.70;;;12.65;;
2928;SDS011;1474;51.460;7.150;2024-03-08T00:48:33;18.55;;;10.63;;
2928;SDS011;1474;51.460;7.150;2024-03-08T00:51:21;15.20;;;10.25;;
2928;SDS011;1474;51.460;7.150;2024-03-08T00:54:06;16.17;;;11.07;;
2928;SDS011;1474;51.460;7.150;2024-03-08T00:56:52;16.73;;;10.13;;
2928;SDS011;1474;51.460;7.150;2024-03-08T00:59:38;14.60;;;9.52;;
2928;SDS011;1474;51.460;7.150;2024-03-08T01:02:24;18.45;;;11.88;;
2928;SDS011;1474;51.460;7.150;2024-03-08T01:05:09;16.98;;;11.65;;
2928;SDS011;1474;51.460;7.150;2024-03-08T01:07:55;17.27;;;11.55;;
2928;SDS011;1474;51.460;7.150;2024-03-08T01:10:41;17.48;;;11.85;;
2928;SDS011;1474;51.460;7.150;2024-03-08T01:13:26;15.07;;;10.73;;
2928;SDS011;1474;51.460;7.150;2024-03-08T01:16:12;18.60;;;12.27;;
2928;SDS011;1474;51.460;7.150;2024-03-08T01:18:59;19.63;;;12.93;;
2928;SDS011;1474;51.460;7.150;2024-03-08T01:21:45;19.10;;;11.50;;
2928;SDS011;1474;51.460;7.150;2024-03-08T01:24:31;15.23;;;10.95;;
2928;SDS011;1474;51.460;7.150;2024-03-08T01:27:18;14.07;;;10.43;;
2928;SDS011;1474;51.460;7.150;2024-03-08T01:30:03;17.20;;;12.30;;
2928;SDS011;1474;51.460;7.150;2024-03-08T01:32:49;18.95;;;11.82;;
2928;SDS011;1474;51.460;7.150;2024-03-08T01:35:35;20.65;;;11.40;;
2928;SDS011;1474;51.460;7.150;2024-03-08T01:38:21;15.43;;;10.35;;
2928;SDS011;1474;51.460;7.150;2024-03-08T01:41:06;15.15;;;10.60;;
2928;SDS011;1474;51.460;7.150;2024-03-08T01:43:52;18.40;;;11.57;;
2928;SDS011;1474;51.460;7.150;2024-03-08T01:46:38;19.40;;;11.77;;
2928;SDS011;1474;51.460;7.150;2024-03-08T01:49:23;19.50;;;12.02;;
2928;SDS011;1474;51.460;7.150;2024-03-08T01:52:09;18.10;;;12.05;;
2928;SDS011;1474;51.460;7.150;2024-03-08T01:54:55;17.92;;;11.60;;
2928;SDS011;1474;51.460;7.150;2024-03-08T01:57:41;18.45;;;12.27;;
2928;SDS011;1474;51.460;7.150;2024-03-08T02:00:27;21.30;;;11.73;;
2928;SDS011;1474;51.460;7.150;2024-03-08T02:03:13;17.83;;;11.00;;
2928;SDS011;1474;51.460;7.150;2024-03-08T02:05:59;15.57;;;10.35;;
2928;SDS011;1474;51.460;7.150;2024-03-08T02:08:45;16.52;;;11.23;;
2928;SDS011;1474;51.460;7.150;2024-03-08T02:11:30;18.92;;;11.35;;
2928;SDS011;1474;51.460;7.150;2024-03-08T02:14:16;17.23;;;11.80;;
2928;SDS011;1474;51.460;7.150;2024-03-08T02:17:02;18.77;;;11.52;;
2928;SDS011;1474;51.460;7.150;2024-03-08T02:19:48;16.80;;;11.30;;
2928;SDS011;1474;51.460;7.150;2024-03-08T02:22:34;18.83;;;12.35;;
2928;SDS011;1474;51.460;7.150;2024-03-08T02:25:19;18.08;;;11.23;;
2928;SDS011;1474;51.460;7.150;2024-03-08T02:28:05;17.23;;;11.23;;
2928;SDS011;1474;51.460;7.150;2024-03-08T02:30:52;17.17;;;11.35;;
2928;SDS011;1474;51.460;7.150;2024-03-08T02:33:40;18.38;;;11.48;;
2928;SDS011;1474;51.460;7.150;2024-03-08T02:36:26;20.50;;;11.77;;
2928;SDS011;1474;51.460;7.150;2024-03-08T02:39:11;20.80;;;11.75;;
2928;SDS011;1474;51.460;7.150;2024-03-08T02:41:57;20.98;;;12.20;;
2928;SDS011;1474;51.460;7.150;2024-03-08T02:44:43;20.00;;;11.25;;
2928;SDS011;1474;51.460;7.150;2024-03-08T02:47:28;17.98;;;12.20;;
2928;SDS011;1474;51.460;7.150;2024-03-08T02:50:14;16.98;;;10.80;;
2928;SDS011;1474;51.460;7.150;2024-03-08T02:53:00;18.00;;;11.65;;
2928;SDS011;1474;51.460;7.150;2024-03-08T02:55:46;20.45;;;11.82;;
2928;SDS011;1474;51.460;7.150;2024-03-08T02:58:32;21.15;;;12.32;;
2928;SDS011;1474;51.460;7.150;2024-03-08T03:01:18;16.88;;;11.30;;
2928;SDS011;1474;51.460;7.150;2024-03-08T03:04:04;17.50;;;10.77;;
2928;SDS011;1474;51.460;7.150;2024-03-08T03:06:49;17.88;;;12.88;;
2928;SDS011;1474;51.460;7.150;2024-03-08T03:09:35;19.88;;;11.52;;
2928;SDS011;1474;51.460;7.150;2024-03-08T03:12:24;18.85;;;11.90;;
2928;SDS011;1474;51.460;7.150;2024-03-08T03:15:12;17.95;;;12.57;;
2928;SDS011;1474;51.460;7.150;2024-03-08T03:18:00;18.67;;;11.00;;
2928;SDS011;1474;51.460;7.150;2024-03-08T03:20:51;20.20;;;11.32;;
2928;SDS011;1474;51.460;7.150;2024-03-08T03:23:39;14.93;;;10.43;;
2928;SDS011;1474;51.460;7.150;2024-03-08T03:26:27;19.80;;;11.80;;
2928;SDS011;1474;51.460;7.150;2024-03-08T03:29:15;20.65;;;11.63;;
2928;SDS011;1474;51.460;7.150;2024-03-08T03:32:04;18.13;;;10.90;;
2928;SDS011;1474;51.460;7.150;2024-03-08T03:34:52;18.02;;;11.25;;
2928;SDS011;1474;51.460;7.150;2024-03-08T03:37:40;19.83;;;12.07;;
2928;SDS011;1474;51.460;7.150;2024-03-08T03:40:51;21.33;;;12.88;;
2928;SDS011;1474;51.460;7.150;2024-03-08T03:43:40;17.10;;;10.27;;
2928;SDS011;1474;51.460;7.150;2024-03-08T03:46:28;17.65;;;10.07;;
2928;SDS011;1474;51.460;7.150;2024-03-08T03:49:16;21.15;;;13.60;;
2928;SDS011;1474;51.460;7.150;2024-03-08T03:52:05;17.88;;;11.30;;
2928;SDS011;1474;51.460;7.150;2024-03-08T03:54:53;21.40;;;11.20;;
2928;SDS011;1474;51.460;7.150;2024-03-08T03:57:41;20.60;;;12.35;;
2928;SDS011;1474;51.460;7.150;2024-03-08T04:00:29;21.15;;;12.00;;
2928;SDS011;1474;51.460;7.150;2024-03-08T04:03:17;19.30;;;11.32;;
2928;SDS011;1474;51.460;7.150;2024-03-08T04:06:05;19.42;;;10.52;;
2928;SDS011;1474;51.460;7.150;2024-03-08T04:08:52;15.07;;;10.63;;
2928;SDS011;1474;51.460;7.150;2024-03-08T04:11:40;18.55;;;11.82;;
2928;SDS011;1474;51.460;7.150;2024-03-08T04:14:28;21.10;;;11.82;;
2928;SDS011;1474;51.460;7.150;2024-03-08T04:17:17;17.23;;;10.57;;
2928;SDS011;1474;51.460;7.150;2024-03-08T04:20:07;21.45;;;12.95;;
2928;SDS011;1474;51.460;7.150;2024-03-08T04:22:58;24.50;;;14.40;;
2928;SDS011;1474;51.460;7.150;2024-03-08T04:25:48;20.77;;;13.52;;
2928;SDS011;1474;51.460;7.150;2024-03-08T04:28:38;23.48;;;12.82;;
2928;SDS011;1474;51.460;7.150;2024-03-08T04:31:27;21.88;;;13.25;;
2928;SDS011;1474;51.460;7.150;2024-03-08T04:34:16;19.58;;;12.30;;
2928;SDS011;1474;51.460;7.150;2024-03-08T04:37:06;23.75;;;13.15;;
2928;SDS011;1474;51.460;7.150;2024-03-08T04:39:58;19.65;;;11.48;;
2928;SDS011;1474;51.460;7.150;2024-03-08T04:42:46;22.63;;;12.82;;
2928;SDS011;1474;51.460;7.150;2024-03-08T04:45:34;20.02;;;11.48;;
2928;SDS011;1474;51.460;7.150;2024-03-08T04:48:22;19.35;;;12.85;;
2928;SDS011;1474;51.460;7.150;2024-03-08T04:51:12;23.70;;;11.73;;
2928;SDS011;1474;51.460;7.150;2024-03-08T04:54:03;18.45;;;12.68;;
2928;SDS011;1474;51.460;7.150;2024-03-08T04:56:50;21.23;;;13.57;;
2928;SDS011;1474;51.460;7.150;2024-03-08T04:59:40;24.88;;;14.68;;
2928;SDS011;1474;51.460;7.150;2024-03-08T05:02:28;22.58;;;13.52;;
2928;SDS011;1474;51.460;7.150;2024-03-08T05:05:18;21.23;;;12.32;;
2928;SDS011;1474;51.460;7.150;2024-03-08T05:08:10;18.13;;;11.95;;
2928;SDS011;1474;51.460;7.150;2024-03-08T05:11:02;22.27;;;12.65;;
2928;SDS011;1474;51.460;7.150;2024-03-08T05:16:43;22.25;;;12.10;;
2928;SDS011;1474;51.460;7.150;2024-03-08T05:19:33;21.98;;;12.52;;
2928;SDS011;1474;51.460;7.150;2024-03-08T05:22:23;16.65;;;11.93;;
2928;SDS011;1474;51.460;7.150;2024-03-08T05:25:13;21.05;;;12.85;;
2928;SDS011;1474;51.460;7.150;2024-03-08T05:28:03;18.35;;;12.70;;
2928;SDS011;1474;51.460;7.150;2024-03-08T05:30:53;20.47;;;12.13;;
2928;SDS011;1474;51.460;7.150;2024-03-08T05:33:43;21.53;;;12.83;;
2928;SDS011;1474;51.460;7.150;2024-03-08T05:36:33;16.48;;;11.52;;
2928;SDS011;1474;51.460;7.150;2024-03-08T05:39:23;23.08;;;13.93;;
2928;SDS011;1474;51.460;7.150;2024-03-08T05:42:13;24.10;;;12.77;;
2928;SDS011;1474;51.460;7.150;2024-03-08T05:45:03;23.98;;;13.55;;
2928;SDS011;1474;51.460;7.150;2024-03-08T05:47:54;21.25;;;13.25;;
2928;SDS011;1474;51.460;7.150;2024-03-08T05:50:45;19.60;;;12.32;;
2928;SDS011;1474;51.460;7.150;2024-03-08T05:53:35;22.55;;;14.13;;
2928;SDS011;1474;51.460;7.150;2024-03-08T05:56:24;19.00;;;13.48;;
2928;SDS011;1474;51.460;7.150;2024-03-08T05:59:14;20.67;;;12.45;;
2928;SDS011;1474;51.460;7.150;2024-03-08T06:02:07;25.23;;;13.20;;
2928;SDS011;1474;51.460;7.150;2024-03-08T06:04:41;24.27;;;13.45;;
2928;SDS011;1474;51.460;7.150;2024-03-08T06:07:13;25.02;;;13.48;;
2928;SDS011;1474;51.460;7.150;2024-03-08T06:09:45;30.15;;;13.95;;
2928;SDS011;1474;51.460;7.150;2024-03-08T06:12:14;23.42;;;15.02;;
2928;SDS011;1474;51.460;7.150;2024-03-08T06:14:44;25.65;;;15.10;;
2928;SDS011;1474;51.460;7.150;2024-03-08T06:17:10;27.52;;;14.88;;
2928;SDS011;1474;51.460;7.150;2024-03-08T06:19:37;21.52;;;13.93;;
2928;SDS011;1474;51.460;7.150;2024-03-08T06:22:03;24.60;;;13.65;;
2928;SDS011;1474;51.460;7.150;2024-03-08T06:24:33;27.50;;;14.98;;
2928;SDS011;1474;51.460;7.150;2024-03-08T06:27:02;21.10;;;13.20;;
2928;SDS011;1474;51.460;7.150;2024-03-08T06:29:27;23.92;;;13.77;;
2928;SDS011;1474;51.460;7.150;2024-03-08T06:31:54;26.15;;;14.13;;
2928;SDS011;1474;51.460;7.150;2024-03-08T06:34:20;24.80;;;14.68;;
2928;SDS011;1474;51.460;7.150;2024-03-08T06:36:46;23.35;;;13.02;;
2928;SDS011;1474;51.460;7.150;2024-03-08T06:39:12;29.65;;;15.13;;
2928;SDS011;1474;51.460;7.150;2024-03-08T06:41:38;23.15;;;13.52;;
2928;SDS011;1474;51.460;7.150;2024-03-08T06:44:05;24.25;;;13.30;;
2928;SDS011;1474;51.460;7.150;2024-03-08T06:46:32;27.42;;;15.38;;
2928;SDS011;1474;51.460;7.150;2024-03-08T06:48:59;28.92;;;14.70;;
2928;SDS011;1474;51.460;7.150;2024-03-08T06:51:25;25.85;;;13.88;;
2928;SDS011;1474;51.460;7.150;2024-03-08T06:53:51;26.23;;;15.30;;
2928;SDS011;1474;51.460;7.150;2024-03-08T06:56:18;24.38;;;15.82;;
2928;SDS011;1474;51.460;7.150;2024-03-08T06:58:44;28.55;;;15.93;;
2928;SDS011;1474;51.460;7.150;2024-03-08T07:01:10;24.38;;;14.85;;
2928;SDS011;1474;51.460;7.150;2024-03-08T07:03:39;25.73;;;15.77;;
2928;SDS011;1474;51.460;7.150;2024-03-08T07:06:09;31.00;;;16.92;;
2928;SDS011;1474;51.460;7.150;2024-03-08T07:08:35;26.33;;;14.43;;
2928;SDS011;1474;51.460;7.150;2024-03-08T07:11:01;24.95;;;15.82;;
2928;SDS011;1474;51.460;7.150;2024-03-08T07:13:27;23.92;;;14.23;;
2928;SDS011;1474;51.460;7.150;2024-03-08T07:15:54;27.85;;;15.82;;
2928;SDS011;1474;51.460;7.150;2024-03-08T07:18:20;24.40;;;14.20;;
2928;SDS011;1474;51.460;7.150;2024-03-08T07:20:47;24.75;;;15.98;;
2928;SDS011;1474;51.460;7.150;2024-03-08T07:23:14;25.40;;;14.68;;
2928;SDS011;1474;51.460;7.150;2024-03-08T07:26:00;25.45;;;13.52;;
2928;SDS011;1474;51.460;7.150;2024-03-08T07:28:26;29.30;;;15.00;;
2928;SDS011;1474;51.460;7.150;2024-03-08T07:30:52;26.08;;;14.32;;
2928;SDS011;1474;51.460;7.150;2024-03-08T07:33:27;22.60;;;13.27;;
2928;SDS011;1474;51.460;7.150;2024-03-08T07:35:53;24.30;;;13.95;;
2928;SDS011;1474;51.460;7.150;2024-03-08T07:38:19;30.25;;;16.42;;
2928;SDS011;1474;51.460;7.150;2024-03-08T07:40:46;27.70;;;15.02;;
2928;SDS011;1474;51.460;7.150;2024-03-08T07:43:13;30.45;;;14.48;;
2928;SDS011;1474;51.460;7.150;2024-03-08T07:45:39;21.75;;;14.05;;
2928;SDS011;1474;51.460;7.150;2024-03-08T07:48:05;23.05;;;13.23;;
2928;SDS011;1474;51.460;7.150;2024-03-08T07:50:38;23.63;;;13.18;;
2928;SDS011;1474;51.460;7.150;2024-03-08T07:53:04;24.65;;;13.68;;
2928;SDS011;1474;51.460;7.150;2024-03-08T07:55:32;25.02;;;14.52;;
2928;SDS011;1474;51.460;7.150;2024-03-08T07:57:58;24.65;;;13.95;;
2928;SDS011;1474;51.460;7.150;2024-03-08T08:00:24;24.27;;;16.13;;
2928;SDS011;1474;51.460;7.150;2024-03-08T08:02:52;20.88;;;13.20;;
2928;SDS011;1474;51.460;7.150;2024-03-08T08:05:18;24.88;;;14.68;;
2928;SDS011;1474;51.460;7.150;2024-03-08T08:07:44;25.73;;;12.73;;
2928;SDS011;1474;51.460;7.150;2024-03-08T08:10:11;19.80;;;13.23;;
2928;SDS011;1474;51.460;7.150;2024-03-08T08:12:43;24.73;;;15.00;;
2928;SDS011;1474;51.460;7.150;2024-03-08T08:15:09;22.58;;;13.88;;
2928;SDS011;1474;51.460;7.150;2024-03-08T08:17:35;27.38;;;13.60;;
2928;SDS011;1474;51.460;7.150;2024-03-08T08:20:05;23.52;;;14.63;;
2928;SDS011;1474;51.460;7.150;2024-03-08T08:22:31;23.05;;;15.23;;
2928;SDS011;1474;51.460;7.150;2024-03-08T08:24:57;23.63;;;13.55;;
2928;SDS011;1474;51.460;7.150;2024-03-08T08:27:23;23.98;;;13.93;;
2928;SDS011;1474;51.460;7.150;2024-03-08T08:29:51;24.13;;;14.90;;
2928;SDS011;1474;51.460;7.150;2024-03-08T08:32:17;19.50;;;12.65;;
2928;SDS011;1474;51.460;7.150;2024-03-08T08:34:43;23.52;;;14.27;;
2928;SDS011;1474;51.460;7.150;2024-03-08T08:37:09;20.35;;;11.98;;
2928;SDS011;1474;51.460;7.150;2024-03-08T08:39:35;24.67;;;13.98;;
2928;SDS011;1474;51.460;7.150;2024-03-08T08:42:03;19.88;;;12.20;;
2928;SDS011;1474;51.460;7.150;2024-03-08T08:44:31;21.33;;;12.10;;
2928;SDS011;1474;51.460;7.150;2024-03-08T08:46:57;23.23;;;13.30;;
2928;SDS011;1474;51.460;7.150;2024-03-08T08:49:23;24.13;;;13.45;;
2928;SDS011;1474;51.460;7.150;2024-03-08T08:51:54;22.00;;;13.68;;
2928;SDS011;1474;51.460;7.150;2024-03-08T08:54:20;20.25;;;13.63;;
2928;SDS011;1474;51.460;7.150;2024-03-08T08:56:47;24.00;;;13.00;;
2928;SDS011;1474;51.460;7.150;2024-03-08T08:59:13;22.17;;;12.98;;
2928;SDS011;1474;51.460;7.150;2024-03-08T09:01:39;22.63;;;12.95;;
2928;SDS011;1474;51.460;7.150;2024-03-08T09:04:05;24.70;;;14.00;;
2928;SDS011;1474;51.460;7.150;2024-03-08T09:06:36;21.88;;;12.93;;
2928;SDS011;1474;51.460;7.150;2024-03-08T09:09:02;18.00;;;13.50;;
2928;SDS011;1474;51.460;7.150;2024-03-08T09:11:30;21.85;;;13.77;;
2928;SDS011;1474;51.460;7.150;2024-03-08T09:13:56;19.85;;;12.55;;
2928;SDS011;1474;51.460;7.150;2024-03-08T09:16:22;24.30;;;14.07;;
2928;SDS011;1474;51.460;7.150;2024-03-08T09:18:48;24.88;;;14.35;;
2928;SDS011;1474;51.460;7.150;2024-03-08T09:21:14;21.00;;;12.75;;
2928;SDS011;1474;51.460;7.150;2024-03-08T09:23:40;22.05;;;15.85;;
2928;SDS011;1474;51.460;7.150;2024-03-08T09:26:06;20.83;;;13.02;;
2928;SDS011;1474;51.460;7.150;2024-03-08T09:28:34;23.55;;;15.10;;
2928;SDS011;1474;51.460;7.150;2024-03-08T09:31:00;21.02;;;13.43;;
2928;SDS011;1474;51.460;7.150;2024-03-08T09:33:27;20.52;;;12.57;;
2928;SDS011;1474;51.460;7.150;2024-03-08T09:35:54;21.02;;;12.52;;
2928;SDS011;1474;51.460;7.150;2024-03-08T09:38:22;21.00;;;13.65;;
2928;SDS011;1474;51.460;7.150;2024-03-08T09:40:49;20.50;;;11.68;;
2928;SDS011;1474;51.460;7.150;2024-03-08T09:43:16;22.80;;;13.88;;
2928;SDS011;1474;51.460;7.150;2024-03-08T09:45:43;21.00;;;12.45;;
2928;SDS011;1474;51.460;7.150;2024-03-08T09:48:11;19.67;;;12.07;;
2928;SDS011;1474;51.460;7.150;2024-03-08T09:50:42;22.38;;;13.88;;
2928;SDS011;1474;51.460;7.150;2024-03-08T09:53:08;20.60;;;12.73;;
2928;SDS011;1474;51.460;7.150;2024-03-08T09:55:36;23.95;;;13.68;;
2928;SDS011;1474;51.460;7.150;2024-03-08T09:58:05;18.33;;;11.85;;
2928;SDS011;1474;51.460;7.150;2024-03-08T10:00:57;19.35;;;11.82;;
2928;SDS011;1474;51.460;7.150;2024-03-08T10:03:26;19.20;;;12.30;;
2928;SDS011;1474;51.460;7.150;2024-03-08T10:05:53;19.95;;;11.77;;
2928;SDS011;1474;51.460;7.150;2024-03-08T10:08:21;18.80;;;13.07;;
2928;SDS011;1474;51.460;7.150;2024-03-08T10:10:47;18.98;;;11.95;;
2928;SDS011;1474;51.460;7.150;2024-03-08T10:13:15;17.58;;;11.80;;
2928;SDS011;1474;51.460;7.150;2024-03-08T10:15:43;18.60;;;13.05;;
2928;SDS011;1474;51.460;7.150;2024-03-08T10:18:10;22.52;;;13.10;;
2928;SDS011;1474;51.460;7.150;2024-03-08T10:20:36;20.23;;;13.02;;
2928;SDS011;1474;51.460;7.150;2024-03-08T10:23:03;18.58;;;13.30;;
2928;SDS011;1474;51.460;7.150;2024-03-08T10:25:33;18.92;;;12.52;;
2928;SDS011;1474;51.460;7.150;2024-03-08T10:28:02;20.63;;;12.77;;
2928;SDS011;1474;51.460;7.150;2024-03-08T10:30:32;18.85;;;13.02;;
2928;SDS011;1474;51.460;7.150;2024-03-08T10:32:58;22.55;;;15.02;;
2928;SDS011;1474;51.460;7.150;2024-03-08T10:35:24;20.08;;;13.82;;
2928;SDS011;1474;51.460;7.150;2024-03-08T10:37:51;20.17;;;14.10;;
2928;SDS011;1474;51.460;7.150;2024-03-08T10:40:24;20.67;;;12.82;;
2928;SDS011;1474;51.460;7.150;2024-03-08T10:45:29;20.88;;;13.05;;
2928;SDS011;1474;51.460;7.150;2024-03-08T10:48:43;22.17;;;14.32;;
2928;SDS011;1474;51.460;7.150;2024-03-08T10:50:43;20.67;;;12.35;;
2928;SDS011;1474;51.460;7.150;2024-03-08T10:53:10;22.33;;;13.38;;
2928;SDS011;1474;51.460;7.150;2024-03-08T10:55:37;19.50;;;13.43;;
2928;SDS011;1474;51.460;7.150;2024-03-08T10:58:06;18.10;;;12.35;;
2928;SDS011;1474;51.460;7.150;2024-03-08T11:00:34;19.55;;;13.70;;
2928;SDS011;1474;51.460;7.150;2024-03-08T11:03:04;17.73;;;12.10;;
2928;SDS011;1474;51.460;7.150;2024-03-08T11:05:40;19.23;;;12.32;;
2928;SDS011;1474;51.460;7.150;2024-03-08T11:08:19;20.35;;;13.73;;
2928;SDS011;1474;51.460;7.150;2024-03-08T11:10:48;22.85;;;13.35;;
2928;SDS011;1474;51.460;7.150;2024-03-08T11:16:00;20.23;;;13.60;;
2928;SDS011;1474;51.460;7.150;2024-03-08T11:18:31;20.48;;;12.07;;
2928;SDS011;1474;51.460;7.150;2024-03-08T11:20:57;18.13;;;12.80;;
2928;SDS011;1474;51.460;7.150;2024-03-08T11:23:24;17.92;;;11.80;;
2928;SDS011;1474;51.460;7.150;2024-03-08T11:25:51;19.63;;;13.70;;
2928;SDS011;1474;51.460;7.150;2024-03-08T11:28:20;18.65;;;13.43;;
2928;SDS011;1474;51.460;7.150;2024-03-08T11:33:28;19.70;;;12.50;;
2928;SDS011;1474;51.460;7.150;2024-03-08T11:38:39;22.08;;;13.73;;
2928;SDS011;1474;51.460;7.150;2024-03-08T11:41:06;21.77;;;13.45;;
2928;SDS011;1474;51.460;7.150;2024-03-08T11:43:33;21.77;;;12.75;;
2928;SDS011;1474;51.460;7.150;2024-03-08T11:46:09;20.10;;;12.13;;
2928;SDS011;1474;51.460;7.150;2024-03-08T11:48:38;18.90;;;12.63;;
2928;SDS011;1474;51.460;7.150;2024-03-08T11:51:04;21.10;;;12.13;;
2928;SDS011;1474;51.460;7.150;2024-03-08T11:53:30;19.63;;;12.75;;
2928;SDS011;1474;51.460;7.150;2024-03-08T11:56:07;18.13;;;12.13;;
2928;SDS011;1474;51.460;7.150;2024-03-08T11:58:33;17.05;;;12.00;;
2928;SDS011;1474;51.460;7.150;2024-03-08T12:01:08;17.88;;;11.88;;
2928;SDS011;1474;51.460;7.150;2024-03-08T12:03:37;18.13;;;11.85;;
2928;SDS011;1474;51.460;7.150;2024-03-08T12:06:03;15.45;;;11.05;;
2928;SDS011;1474;51.460;7.150;2024-03-08T12:08:30;20.05;;;13.10;;
2928;SDS011;1474;51.460;7.150;2024-03-08T12:10:57;13.52;;;10.70;;
2928;SDS011;1474;51.460;7.150;2024-03-08T12:13:29;16.27;;;11.40;;
2928;SDS011;1474;51.460;7.150;2024-03-08T12:15:59;19.67;;;13.73;;
2928;SDS011;1474;51.460;7.150;2024-03-08T12:18:26;20.33;;;11.95;;
2928;SDS011;1474;51.460;7.150;2024-03-08T12:28:38;14.73;;;10.32;;
2928;SDS011;1474;51.460;7.150;2024-03-08T12:31:06;15.07;;;10.38;;
2928;SDS011;1474;51.460;7.150;2024-03-08T12:33:36;16.80;;;10.38;;
2928;SDS011;1474;51.460;7.150;2024-03-08T12:36:02;15.00;;;9.73;;
2928;SDS011;1474;51.460;7.150;2024-03-08T12:38:32;14.20;;;10.45;;
2928;SDS011;1474;51.460;7.150;2024-03-08T12:41:00;12.65;;;7.85;;
2928;SDS011;1474;51.460;7.150;2024-03-08T12:43:26;7.05;;;5.35;;
2928;SDS011;1474;51.460;7.150;2024-03-08T12:45:55;9.27;;;5.78;;
2928;SDS011;1474;51.460;7.150;2024-03-08T12:48:21;8.13;;;5.13;;
2928;SDS011;1474;51.460;7.150;2024-03-08T12:50:47;7.70;;;4.85;;
2928;SDS011;1474;51.460;7.150;2024-03-08T12:53:13;8.25;;;5.13;;
2928;SDS011;1474;51.460;7.150;2024-03-08T12:55:39;6.95;;;4.70;;
2928;SDS011;1474;51.460;7.150;2024-03-08T12:58:06;8.88;;;5.85;;
2928;SDS011;1474;51.460;7.150;2024-03-08T13:00:33;7.63;;;4.80;;
2928;SDS011;1474;51.460;7.150;2024-03-08T13:03:01;6.60;;;4.40;;
2928;SDS011;1474;51.460;7.150;2024-03-08T13:05:27;6.93;;;4.20;;
2928;SDS011;1474;51.460;7.150;2024-03-08T13:07:54;9.80;;;6.78;;
2928;SDS011;1474;51.460;7.150;2024-03-08T13:10:22;6.43;;;5.50;;
2928;SDS011;1474;51.460;7.150;2024-03-08T13:12:48;6.38;;;5.28;;
2928;SDS011;1474;51.460;7.150;2024-03-08T13:15:14;8.02;;;4.85;;
2928;SDS011;1474;51.460;7.150;2024-03-08T13:17:45;7.03;;;5.15;;
2928;SDS011;1474;51.460;7.150;2024-03-08T13:20:11;6.75;;;4.82;;
2928;SDS011;1474;51.460;7.150;2024-03-08T13:22:44;7.30;;;4.50;;
2928;SDS011;1474;51.460;7.150;2024-03-08T13:25:11;6.63;;;5.43;;
2928;SDS011;1474;51.460;7.150;2024-03-08T13:27:41;7.07;;;4.78;;
2928;SDS011;1474;51.460;7.150;2024-03-08T13:30:10;7.07;;;5.10;;
2928;SDS011;1474;51.460;7.150;2024-03-08T13:32:43;7.57;;;5.13;;
2928;SDS011;1474;51.460;7.150;2024-03-08T13:35:09;8.70;;;5.70;;
2928;SDS011;1474;51.460;7.150;2024-03-08T13:37:42;7.32;;;5.55;;
2928;SDS011;1474;51.460;7.150;2024-03-08T13:40:08;8.50;;;5.30;;
2928;SDS011;1474;51.460;7.150;2024-03-08T13:42:44;8.65;;;5.43;;
2928;SDS011;1474;51.460;7.150;2024-03-08T13:45:10;9.43;;;6.68;;
2928;SDS011;1474;51.460;7.150;2024-03-08T13:47:36;10.10;;;6.07;;
2928;SDS011;1474;51.460;7.150;2024-03-08T13:50:02;8.73;;;6.55;;
2928;SDS011;1474;51.460;7.150;2024-03-08T13:52:32;7.47;;;5.07;;
2928;SDS011;1474;51.460;7.150;2024-03-08T13:54:59;6.82;;;4.68;;
2928;SDS011;1474;51.460;7.150;2024-03-08T13:57:25;7.00;;;4.50;;
2928;SDS011;1474;51.460;7.150;2024-03-08T13:59:52;7.50;;;5.20;;
2928;SDS011;1474;51.460;7.150;2024-03-08T14:02:18;7.05;;;4.95;;
2928;SDS011;1474;51.460;7.150;2024-03-08T14:04:47;6.50;;;4.78;;
2928;SDS011;1474;51.460;7.150;2024-03-08T14:07:14;8.52;;;5.07;;
2928;SDS011;1474;51.460;7.150;2024-03-08T14:09:41;6.50;;;5.05;;
2928;SDS011;1474;51.460;7.150;2024-03-08T14:12:08;7.22;;;5.32;;
2928;SDS011;1474;51.460;7.150;2024-03-08T14:14:34;9.68;;;5.75;;
2928;SDS011;1474;51.460;7.150;2024-03-08T14:17:03;8.55;;;5.65;;
2928;SDS011;1474;51.460;7.150;2024-03-08T14:21:57;8.30;;;5.88;;
2928;SDS011;1474;51.460;7.150;2024-03-08T14:24:24;8.20;;;5.18;;
2928;SDS011;1474;51.460;7.150;2024-03-08T14:26:50;10.82;;;6.18;;
2928;SDS011;1474;51.460;7.150;2024-03-08T14:29:16;8.57;;;5.85;;
2928;SDS011;1474;51.460;7.150;2024-03-08T14:31:45;8.98;;;6.28;;
2928;SDS011;1474;51.460;7.150;2024-03-08T14:34:11;9.63;;;6.45;;
2928;SDS011;1474;51.460;7.150;2024-03-08T14:36:39;7.65;;;6.00;;
2928;SDS011;1474;51.460;7.150;2024-03-08T14:39:05;9.68;;;6.38;;
2928;SDS011;1474;51.460;7.150;2024-03-08T14:41:32;8.90;;;6.47;;
2928;SDS011;1474;51.460;7.150;2024-03-08T14:43:58;8.45;;;6.47;;
2928;SDS011;1474;51.460;7.150;2024-03-08T14:46:24;8.45;;;6.30;;
2928;SDS011;1474;51.460;7.150;2024-03-08T14:48:52;9.05;;;6.07;;
2928;SDS011;1474;51.460;7.150;2024-03-08T14:51:18;10.13;;;5.90;;
2928;SDS011;1474;51.460;7.150;2024-03-08T14:53:51;9.20;;;7.00;;
2928;SDS011;1474;51.460;7.150;2024-03-08T14:56:17;10.57;;;6.15;;
2928;SDS011;1474;51.460;7.150;2024-03-08T14:58:43;12.68;;;7.75;;
2928;SDS011;1474;51.460;7.150;2024-03-08T15:01:10;12.18;;;9.25;;
2928;SDS011;1474;51.460;7.150;2024-03-08T15:03:39;10.10;;;7.63;;
2928;SDS011;1474;51.460;7.150;2024-03-08T15:06:05;10.35;;;7.18;;
2928;SDS011;1474;51.460;7.150;2024-03-08T15:08:34;14.13;;;7.75;;
2928;SDS011;1474;51.460;7.150;2024-03-08T15:11:00;11.27;;;8.18;;
2928;SDS011;1474;51.460;7.150;2024-03-08T15:13:26;9.48;;;6.40;;
2928;SDS011;1474;51.460;7.150;2024-03-08T15:16:06;8.90;;;6.38;;
2928;SDS011;1474;51.460;7.150;2024-03-08T15:18:32;10.85;;;7.75;;
2928;SDS011;1474;51.460;7.150;2024-03-08T15:21:05;10.80;;;7.47;;
2928;SDS011;1474;51.460;7.150;2024-03-08T15:23:33;11.00;;;7.30;;
2928;SDS011;1474;51.460;7.150;2024-03-08T15:25:59;7.65;;;6.70;;
2928;SDS011;1474;51.460;7.150;2024-03-08T15:28:26;11.20;;;6.95;;
2928;SDS011;1474;51.460;7.150;2024-03-08T15:31:01;8.60;;;6.18;;
2928;SDS011;1474;51.460;7.150;2024-03-08T15:33:31;8.80;;;5.50;;
2928;SDS011;1474;51.460;7.150;2024-03-08T15:35:57;11.57;;;6.60;;
2928;SDS011;1474;51.460;7.150;2024-03-08T15:38:28;9.27;;;6.35;;
2928;SDS011;1474;51.460;7.150;2024-03-08T15:40:54;9.45;;;6.10;;
2928;SDS011;1474;51.460;7.150;2024-03-08T15:43:23;15.20;;;8.13;;
2928;SDS011;1474;51.460;7.150;2024-03-08T15:45:51;10.20;;;7.18;;
2928;SDS011;1474;51.460;7.150;2024-03-08T15:48:19;10.18;;;6.60;;
2928;SDS011;1474;51.460;7.150;2024-03-08T15:50:46;9.57;;;7.05;;
2928;SDS011;1474;51.460;7.150;2024-03-08T15:53:12;10.57;;;6.25;;
2928;SDS011;1474;51.460;7.150;2024-03-08T15:55:40;9.40;;;6.38;;
2928;SDS011;1474;51.460;7.150;2024-03-08T15:58:06;12.50;;;7.55;;
2928;SDS011;1474;51.460;7.150;2024-03-08T16:00:32;9.73;;;6.70;;
2928;SDS011;1474;51.460;7.150;2024-03-08T16:03:02;11.80;;;6.88;;